createdAt,value
2022-08-07T00:02:37.562Z,14.94
2022-08-07T00:05:06.624Z,14.93
2022-08-07T00:07:40.437Z,14.93
2022-08-07T00:10:27.350Z,14.91
2022-08-07T00:13:09.719Z,14.86
2022-08-07T00:15:52.754Z,14.85
2022-08-07T00:18:28.737Z,14.87
2022-08-07T00:21:01.491Z,14.86
2022-08-07T00:23:34.601Z,14.78
2022-08-07T00:26:18.930Z,14.72
2022-08-07T00:28:57.194Z,14.74
2022-08-07T00:31:37.965Z,14.77
2022-08-07T00:34:11.497Z,14.79
2022-08-07T00:36:43.071Z,14.80
2022-08-07T00:39:16.834Z,14.82
2022-08-07T00:42:01.423Z,14.84
2022-08-07T00:44:33.545Z,14.85
2022-08-07T00:47:26.560Z,14.84
2022-08-07T00:50:20.193Z,14.85
2022-08-07T00:52:47.374Z,14.87
2022-08-07T00:55:46.576Z,14.88
2022-08-07T00:58:07.594Z,14.89
2022-08-07T01:00:38.656Z,14.90
2022-08-07T01:03:54.507Z,14.92
2022-08-07T01:06:14.250Z,14.93
2022-08-07T01:08:53.132Z,14.95
2022-08-07T01:12:11.076Z,14.97
2022-08-07T01:14:16.576Z,14.98
2022-08-07T01:16:48.071Z,14.99
2022-08-07T01:19:19.971Z,15.00
2022-08-07T01:21:55.123Z,14.94
2022-08-07T01:24:30.656Z,14.89
2022-08-07T01:27:02.363Z,14.85
2022-08-07T01:29:34.131Z,14.74
2022-08-07T01:32:12.551Z,14.65
2022-08-07T01:34:47.342Z,14.64
2022-08-07T01:37:20.121Z,14.64
2022-08-07T01:39:52.603Z,14.64
2022-08-07T01:42:57.213Z,14.58
2022-08-07T01:45:36.209Z,14.58
2022-08-07T01:48:21.340Z,14.56
2022-08-07T01:51:24.398Z,14.51
2022-08-07T01:54:09.429Z,14.49
2022-08-07T01:56:53.237Z,14.45
2022-08-07T01:59:31.013Z,14.42
2022-08-07T02:02:07.487Z,14.40
2022-08-07T02:04:55.655Z,14.32
2022-08-07T02:07:44.771Z,14.20
2022-08-07T02:10:29.794Z,14.05
2022-08-07T02:13:02.898Z,14.04
2022-08-07T02:15:40.634Z,14.10
2022-08-07T02:18:14.443Z,14.18
2022-08-07T02:20:52.026Z,14.23
2022-08-07T02:23:27.962Z,14.28
2022-08-07T02:26:30.506Z,14.31
2022-08-07T02:28:52.914Z,14.34
2022-08-07T02:31:29.169Z,14.35
2022-08-07T02:34:04.120Z,14.33
2022-08-07T02:36:45.125Z,14.33
2022-08-07T02:39:43.636Z,14.24
2022-08-07T02:42:16.145Z,14.19
2022-08-07T02:44:50.123Z,14.21
2022-08-07T02:47:24.430Z,14.24
2022-08-07T02:50:00.214Z,14.26
2022-08-07T02:52:44.131Z,14.29
2022-08-07T02:55:27.623Z,14.28
2022-08-07T02:58:14.783Z,14.31
2022-08-07T03:00:47.086Z,14.33
2022-08-07T03:03:20.997Z,14.36
2022-08-07T03:05:56.425Z,14.38
2022-08-07T03:08:29.299Z,14.42
2022-08-07T03:11:02.328Z,14.44
2022-08-07T03:13:49.420Z,14.47
2022-08-07T03:16:22.993Z,14.50
2022-08-07T03:18:58.669Z,14.53
2022-08-07T03:21:28.622Z,14.57
2022-08-07T03:24:19.927Z,14.59
2022-08-07T03:26:57.802Z,14.64
2022-08-07T03:29:36.656Z,14.65
2022-08-07T03:32:13.297Z,14.68
2022-08-07T03:34:47.148Z,14.68
2022-08-07T03:37:46.531Z,14.64
2022-08-07T03:40:30.756Z,14.58
2022-08-07T03:43:09.974Z,14.60
2022-08-07T03:45:47.771Z,14.59
2022-08-07T03:48:23.069Z,14.63
2022-08-07T03:50:57.953Z,14.67
2022-08-07T03:54:05.861Z,14.71
2022-08-07T03:56:33.525Z,14.75
2022-08-07T03:59:13.643Z,14.77
2022-08-07T04:01:49.327Z,14.78
2022-08-07T04:04:23.114Z,14.81
2022-08-07T04:06:57.342Z,14.80
2022-08-07T04:09:45.218Z,14.77
2022-08-07T04:12:27.521Z,14.76
2022-08-07T04:15:00.283Z,14.80
2022-08-07T04:18:30.784Z,14.84
2022-08-07T04:20:23.552Z,14.78
2022-08-07T04:23:01.606Z,14.80
2022-08-07T04:25:39.335Z,14.85
2022-08-07T04:28:13.301Z,14.91
2022-08-07T04:30:56.865Z,14.98
2022-08-07T04:33:36.592Z,15.04
2022-08-07T04:36:08.495Z,15.06
2022-08-07T04:38:39.341Z,15.05
2022-08-07T04:41:18.288Z,15.04
2022-08-07T04:44:12.308Z,15.08
2022-08-07T04:47:04.675Z,15.15
2022-08-07T04:49:57.974Z,15.15
2022-08-07T04:52:51.075Z,15.19
2022-08-07T04:58:14.419Z,15.20
2022-08-07T04:58:49.804Z,15.20
2022-08-07T05:01:32.416Z,15.19
2022-08-07T05:04:12.489Z,15.25
2022-08-07T05:06:59.108Z,15.28
2022-08-07T05:09:46.044Z,15.31
2022-08-07T05:12:38.614Z,15.29
2022-08-07T05:15:24.157Z,15.31
2022-08-07T05:18:06.231Z,15.32
2022-08-07T05:20:43.818Z,15.39
2022-08-07T05:23:19.622Z,15.49
2022-08-07T05:26:12.899Z,15.60
2022-08-07T05:28:50.377Z,15.70
2022-08-07T05:31:35.019Z,15.79
2022-08-07T05:34:12.011Z,15.89
2022-08-07T05:36:48.967Z,16.11
2022-08-07T05:40:16.671Z,16.02
2022-08-07T05:42:34.474Z,16.14
2022-08-07T05:45:25.918Z,16.33
2022-08-07T05:48:06.102Z,16.49
2022-08-07T05:50:43.376Z,16.50
2022-08-07T05:54:13.522Z,16.55
2022-08-07T05:56:09.692Z,16.67
2022-08-07T05:58:52.570Z,16.63
2022-08-07T06:01:35.653Z,16.92
2022-08-07T06:04:09.178Z,17.00
2022-08-07T06:06:46.172Z,17.01
2022-08-07T06:09:18.366Z,17.30
2022-08-07T06:11:51.744Z,17.51
2022-08-07T06:14:28.908Z,17.65
2022-08-07T06:17:07.261Z,17.83
2022-08-07T06:19:52.211Z,18.04
2022-08-07T06:22:39.078Z,18.22
2022-08-07T06:25:29.064Z,18.11
2022-08-07T06:28:07.040Z,18.09
2022-08-07T06:30:45.884Z,18.38
2022-08-07T06:33:20.806Z,18.55
2022-08-07T06:36:06.602Z,18.78
2022-08-07T06:38:51.212Z,18.81
2022-08-07T06:41:59.177Z,18.30
2022-08-07T06:44:39.816Z,17.73
2022-08-07T06:47:15.059Z,17.83
2022-08-07T06:49:52.501Z,17.88
2022-08-07T06:52:35.962Z,17.75
2022-08-07T06:55:32.250Z,17.83
2022-08-07T06:58:10.208Z,17.75
2022-08-07T07:00:55.964Z,18.04
2022-08-07T07:03:39.788Z,18.25
2022-08-07T07:06:26.050Z,18.20
2022-08-07T07:08:58.082Z,17.98
2022-08-07T07:12:08.161Z,17.91
2022-08-07T07:14:21.912Z,17.85
2022-08-07T07:16:54.452Z,17.88
2022-08-07T07:19:57.204Z,18.26
2022-08-07T07:22:35.784Z,18.49
2022-08-07T07:26:31.225Z,18.98
2022-08-07T07:28:42.612Z,19.05
2022-08-07T07:31:04.353Z,18.91
2022-08-07T07:33:38.553Z,19.11
2022-08-07T07:36:13.303Z,19.49
2022-08-07T07:38:48.098Z,19.30
2022-08-07T07:41:22.372Z,19.37
2022-08-07T07:44:17.387Z,19.28
2022-08-07T07:47:02.253Z,19.63
2022-08-07T07:50:36.409Z,20.09
2022-08-07T07:52:36.812Z,20.58
2022-08-07T07:55:10.950Z,20.54
2022-08-07T07:57:43.989Z,20.74
2022-08-07T08:00:29.660Z,21.05
2022-08-07T08:03:07.072Z,21.32
2022-08-07T08:05:54.005Z,21.46
2022-08-07T08:08:36.992Z,21.02
2022-08-07T08:11:16.526Z,20.23
2022-08-07T08:14:00.534Z,20.30
2022-08-07T08:16:35.548Z,20.53
2022-08-07T08:19:17.990Z,20.84
2022-08-07T08:22:17.464Z,21.07
2022-08-07T08:25:24.897Z,20.75
2022-08-07T08:28:03.745Z,20.74
2022-08-07T08:30:42.512Z,20.68
2022-08-07T08:33:18.414Z,20.60
2022-08-07T08:35:51.559Z,20.75
2022-08-07T08:38:29.370Z,20.73
2022-08-07T08:41:05.652Z,20.83
2022-08-07T08:43:56.056Z,20.72
2022-08-07T08:46:39.097Z,20.40
2022-08-07T08:49:17.503Z,20.43
2022-08-07T08:52:13.030Z,20.34
2022-08-07T08:54:51.553Z,20.40
2022-08-07T08:57:30.329Z,20.45
2022-08-07T09:00:07.011Z,20.30
2022-08-07T09:02:52.320Z,20.34
2022-08-07T09:05:37.528Z,20.41
2022-08-07T09:08:28.113Z,20.35
2022-08-07T09:11:14.082Z,20.42
2022-08-07T09:14:06.430Z,20.46
2022-08-07T09:16:52.812Z,20.46
2022-08-07T09:19:50.635Z,20.38
2022-08-07T09:24:31.902Z,20.09
2022-08-07T09:25:54.380Z,20.13
2022-08-07T09:30:01.135Z,20.21
2022-08-07T09:31:48.611Z,20.32
2022-08-07T09:34:26.320Z,20.33
2022-08-07T09:37:03.614Z,20.31
2022-08-07T09:39:53.867Z,20.28
2022-08-07T09:42:51.795Z,20.32
2022-08-07T09:47:26.192Z,20.19
2022-08-07T09:48:55.862Z,20.35
2022-08-07T09:52:16.787Z,20.15
2022-08-07T09:54:39.976Z,20.09
2022-08-07T09:57:36.544Z,20.02
2022-08-07T10:00:14.449Z,20.53
2022-08-07T10:04:05.723Z,20.80
2022-08-07T10:06:49.077Z,20.93
2022-08-07T10:10:01.036Z,21.01
2022-08-07T10:12:53.253Z,21.23
2022-08-07T10:15:44.521Z,21.63
2022-08-07T10:18:52.593Z,21.82
2022-08-07T10:22:14.161Z,21.55
2022-08-07T10:24:45.732Z,21.79
2022-08-07T10:27:46.632Z,21.95
2022-08-07T10:30:20.083Z,22.09
2022-08-07T10:33:23.524Z,22.53
2022-08-07T10:36:29.478Z,22.61
2022-08-07T10:39:05.744Z,22.53
2022-08-07T10:41:52.310Z,22.78
2022-08-07T10:44:38.716Z,22.25
2022-08-07T10:47:27.092Z,22.23
2022-08-07T10:50:15.363Z,22.47
2022-08-07T10:52:59.003Z,22.56
2022-08-07T10:55:45.572Z,22.31
2022-08-07T10:58:46.132Z,22.22
2022-08-07T11:01:52.098Z,22.28
2022-08-07T11:05:10.023Z,22.32
2022-08-07T11:07:59.491Z,22.28
2022-08-07T11:10:39.651Z,22.19
2022-08-07T11:13:42.451Z,22.18
2022-08-07T11:16:12.260Z,22.02
2022-08-07T11:18:50.975Z,22.12
2022-08-07T11:21:35.323Z,22.22
2022-08-07T11:24:20.993Z,22.45
2022-08-07T11:26:57.602Z,22.68
2022-08-07T11:29:41.726Z,23.00
2022-08-07T11:32:25.489Z,22.98
2022-08-07T11:34:59.864Z,23.24
2022-08-07T11:37:58.011Z,23.22
2022-08-07T11:40:49.928Z,23.04
2022-08-07T11:43:29.451Z,22.76
2022-08-07T11:46:44.632Z,22.91
2022-08-07T11:50:11.441Z,22.84
2022-08-07T11:52:46.251Z,22.75
2022-08-07T11:56:09.620Z,22.76
2022-08-07T11:58:33.339Z,22.61
2022-08-07T12:01:22.118Z,22.44
2022-08-07T12:04:31.213Z,22.53
2022-08-07T12:07:09.125Z,22.46
2022-08-07T12:09:56.142Z,22.54
2022-08-07T12:12:28.753Z,22.94
2022-08-07T12:15:08.225Z,23.10
2022-08-07T12:17:59.228Z,23.27
2022-08-07T12:20:33.535Z,23.20
2022-08-07T12:24:05.661Z,23.07
2022-08-07T12:26:29.727Z,22.97
2022-08-07T12:29:09.114Z,22.89
2022-08-07T12:32:01.691Z,23.17
2022-08-07T12:34:38.887Z,22.81
2022-08-07T12:37:22.892Z,22.58
2022-08-07T12:39:58.370Z,22.65
2022-08-07T12:42:32.178Z,23.00
2022-08-07T12:45:09.360Z,23.45
2022-08-07T12:47:50.121Z,23.55
2022-08-07T12:50:40.042Z,23.52
2022-08-07T12:53:29.215Z,23.22
2022-08-07T12:56:29.824Z,22.91
2022-08-07T12:59:02.611Z,22.94
2022-08-07T13:01:52.703Z,22.99
2022-08-07T13:05:01.984Z,23.37
2022-08-07T13:08:13.751Z,23.73
2022-08-07T13:11:00.184Z,24.13
2022-08-07T13:13:57.316Z,23.74
2022-08-07T13:16:36.699Z,23.57
2022-08-07T13:19:45.798Z,23.60
2022-08-07T13:22:30.326Z,23.45
2022-08-07T13:25:04.242Z,23.30
2022-08-07T13:28:13.809Z,23.34
2022-08-07T13:30:40.386Z,23.47
2022-08-07T13:34:32.696Z,23.71
2022-08-07T13:36:21.915Z,23.89
2022-08-07T13:39:13.119Z,23.73
2022-08-07T13:41:59.101Z,23.29
2022-08-07T13:44:34.722Z,23.23
2022-08-07T13:47:10.062Z,23.35
2022-08-07T13:50:32.720Z,23.14
2022-08-07T13:52:44.291Z,22.94
2022-08-07T13:55:26.247Z,22.48
2022-08-07T13:58:27.899Z,22.66
2022-08-07T14:01:09.178Z,22.75
2022-08-07T14:04:05.611Z,22.86
2022-08-07T14:06:36.302Z,22.77
2022-08-07T14:09:17.180Z,22.75
2022-08-07T14:12:07.391Z,22.67
2022-08-07T14:14:45.415Z,22.65
2022-08-07T14:18:15.506Z,22.67
2022-08-07T14:20:40.602Z,22.82
2022-08-07T14:23:17.893Z,23.14
2022-08-07T14:26:02.074Z,23.40
2022-08-07T14:28:59.046Z,23.21
2022-08-07T14:31:42.899Z,23.47
2022-08-07T14:34:20.044Z,23.70
2022-08-07T14:36:56.442Z,23.60
2022-08-07T14:40:16.080Z,23.43
2022-08-07T14:42:24.162Z,23.44
2022-08-07T14:44:59.861Z,23.42
2022-08-07T14:47:49.654Z,23.30
2022-08-07T14:50:25.956Z,23.21
2022-08-07T14:52:56.605Z,23.14
2022-08-07T14:55:56.071Z,23.06
2022-08-07T14:58:34.926Z,22.95
2022-08-07T15:01:19.560Z,22.67
2022-08-07T15:03:53.606Z,22.72
2022-08-07T15:06:25.995Z,22.88
2022-08-07T15:09:02.011Z,23.05
2022-08-07T15:12:01.249Z,22.98
2022-08-07T15:14:32.907Z,23.07
2022-08-07T15:17:11.529Z,23.10
2022-08-07T15:20:32.494Z,23.06
2022-08-07T15:22:51.583Z,22.95
2022-08-07T15:25:47.243Z,23.01
2022-08-07T15:32:01.982Z,22.98
2022-08-07T15:34:06.204Z,22.73
2022-08-07T15:37:02.823Z,22.42
2022-08-07T15:39:57.647Z,22.41
2022-08-07T15:42:44.050Z,22.64
2022-08-07T15:45:58.167Z,22.60
2022-08-07T15:51:16.657Z,22.97
2022-08-07T15:53:52.839Z,23.02
2022-08-07T15:56:29.754Z,23.02
2022-08-07T15:59:16.462Z,23.14
2022-08-07T16:02:02.338Z,23.14
2022-08-07T16:04:36.022Z,23.06
2022-08-07T16:08:28.921Z,23.10
2022-08-07T16:10:14.817Z,23.19
2022-08-07T16:13:17.767Z,23.12
2022-08-07T16:15:57.220Z,22.99
2022-08-07T16:18:55.775Z,22.81
2022-08-07T16:21:57.076Z,22.96
2022-08-07T16:24:36.174Z,23.03
2022-08-07T16:27:19.527Z,23.02
2022-08-07T16:30:32.012Z,22.91
2022-08-07T16:34:01.921Z,22.90
2022-08-07T16:36:31.139Z,22.86
2022-08-07T16:39:21.046Z,22.83
2022-08-07T16:42:33.822Z,22.61
2022-08-07T16:46:21.095Z,22.39
2022-08-07T16:49:04.206Z,22.43
2022-08-07T16:52:06.476Z,22.40
2022-08-07T16:54:55.090Z,22.32
2022-08-07T16:58:01.557Z,22.16
2022-08-07T17:00:34.937Z,22.16
2022-08-07T17:03:18.736Z,22.15
2022-08-07T17:06:28.908Z,22.16
2022-08-07T17:09:10.470Z,22.07
2022-08-07T17:12:05.268Z,22.00
2022-08-07T17:14:52.483Z,21.96
2022-08-07T17:17:47.043Z,21.90
2022-08-07T17:20:30.987Z,21.80
2022-08-07T17:23:11.400Z,21.67
2022-08-07T17:25:56.713Z,21.55
2022-08-07T17:28:36.983Z,21.41
2022-08-07T17:31:17.392Z,21.41
2022-08-07T17:34:15.290Z,21.33
2022-08-07T17:36:57.996Z,21.28
2022-08-07T17:39:58.922Z,21.25
2022-08-07T17:42:59.130Z,21.19
2022-08-07T17:45:38.033Z,21.11
2022-08-07T17:48:12.786Z,21.05
2022-08-07T17:51:01.688Z,20.97
2022-08-07T17:54:01.273Z,20.88
2022-08-07T17:56:49.296Z,20.74
2022-08-07T17:59:25.954Z,20.64
2022-08-07T18:02:12.255Z,20.51
2022-08-07T18:04:55.925Z,20.42
2022-08-07T18:07:43.571Z,20.34
2022-08-07T18:10:32.736Z,20.26
2022-08-07T18:13:20.561Z,20.14
2022-08-07T18:16:05.428Z,20.04
2022-08-07T18:21:07.142Z,19.95
2022-08-07T18:21:56.667Z,19.84
2022-08-07T18:24:37.284Z,19.74
2022-08-07T18:27:48.969Z,19.63
2022-08-07T18:30:36.830Z,19.49
2022-08-07T18:33:37.289Z,19.41
2022-08-07T18:36:32.774Z,19.29
2022-08-07T18:40:06.407Z,19.18
2022-08-07T18:42:18.336Z,19.00
2022-08-07T18:45:44.771Z,18.96
2022-08-07T18:48:02.535Z,18.88
2022-08-07T18:50:54.422Z,18.82
2022-08-07T18:53:44.411Z,18.67
2022-08-07T18:56:31.605Z,18.61
2022-08-07T18:59:47.630Z,18.55
2022-08-07T19:02:20.106Z,18.51
2022-08-07T19:05:10.423Z,18.42
2022-08-07T19:07:58.789Z,18.32
2022-08-07T19:10:49.878Z,18.26
2022-08-07T19:13:30.572Z,18.19
2022-08-07T19:17:04.081Z,18.09
2022-08-07T19:19:13.098Z,18.04
2022-08-07T19:21:58.588Z,18.02
2022-08-07T19:24:43.171Z,17.98
2022-08-07T19:28:58.448Z,17.87
2022-08-07T19:31:05.896Z,17.80
2022-08-07T19:33:10.218Z,17.73
2022-08-07T19:35:46.816Z,17.71
2022-08-07T19:38:20.410Z,17.67
2022-08-07T19:40:57.233Z,17.64
2022-08-07T19:43:50.172Z,17.59
2022-08-07T19:46:29.079Z,17.53
2022-08-07T19:49:05.628Z,17.51
2022-08-07T19:51:52.364Z,17.46
2022-08-07T19:54:33.902Z,17.40
2022-08-07T19:58:02.755Z,17.37
2022-08-07T20:00:00.295Z,17.21
2022-08-07T20:02:38.938Z,17.20
2022-08-07T20:05:14.615Z,17.18
2022-08-07T20:07:50.990Z,17.15
2022-08-07T20:10:38.346Z,17.11
2022-08-07T20:13:26.987Z,17.03
2022-08-07T20:16:00.892Z,17.00
2022-08-07T20:18:34.652Z,16.99
2022-08-07T20:21:14.316Z,16.96
2022-08-07T20:23:57.862Z,16.90
2022-08-07T20:26:44.808Z,16.85
2022-08-07T20:29:48.119Z,16.72
2022-08-07T20:32:22.988Z,16.66
2022-08-07T20:34:57.815Z,16.66
2022-08-07T20:37:34.216Z,16.64
2022-08-07T20:40:32.454Z,16.59
2022-08-07T20:43:00.899Z,16.52
2022-08-07T20:46:26.749Z,16.50
2022-08-07T20:48:29.726Z,16.43
2022-08-07T20:51:03.534Z,16.38
2022-08-07T20:54:04.545Z,16.30
2022-08-07T20:56:32.347Z,16.30
2022-08-07T21:00:04.539Z,16.22
2022-08-07T21:02:04.058Z,16.21
2022-08-07T21:04:40.607Z,16.13
2022-08-07T21:07:14.735Z,16.13
2022-08-07T21:10:00.380Z,16.10
2022-08-07T21:12:34.575Z,16.06
2022-08-07T21:15:10.160Z,16.06
2022-08-07T21:18:03.444Z,15.99
2022-08-07T21:20:48.047Z,15.91
2022-08-07T21:23:42.673Z,15.88
2022-08-07T21:26:50.580Z,15.86
2022-08-07T21:29:30.755Z,15.83
2022-08-07T21:32:48.554Z,15.81
2022-08-07T21:35:02.607Z,15.77
2022-08-07T21:37:58.367Z,15.75
2022-08-07T21:40:43.003Z,15.69
2022-08-07T21:43:23.012Z,15.68
2022-08-07T21:46:07.767Z,15.65
2022-08-07T21:48:55.973Z,15.61
2022-08-07T21:51:51.104Z,15.58
2022-08-07T21:54:32.006Z,15.54
2022-08-07T21:57:39.947Z,15.53
2022-08-07T22:00:22.155Z,15.51
2022-08-07T22:03:03.623Z,15.43
2022-08-07T22:05:48.252Z,15.39
2022-08-07T22:08:24.641Z,15.33
2022-08-07T22:11:00.012Z,15.33
2022-08-07T22:13:52.943Z,15.32
2022-08-07T22:16:39.208Z,15.37
2022-08-07T22:19:23.509Z,15.36
2022-08-07T22:22:17.604Z,15.35
2022-08-07T22:25:05.396Z,15.32
2022-08-07T22:28:20.026Z,15.30
2022-08-07T22:30:40.579Z,15.29
2022-08-07T22:33:15.115Z,15.26
2022-08-07T22:35:54.925Z,15.28
2022-08-07T22:38:39.834Z,15.25
2022-08-07T22:42:02.635Z,15.15
2022-08-07T22:44:21.924Z,15.11
2022-08-07T22:47:17.099Z,15.09
2022-08-07T22:50:13.303Z,15.07
2022-08-07T22:53:15.140Z,15.03
2022-08-07T22:55:57.584Z,14.96
2022-08-07T22:59:13.605Z,14.94
2022-08-07T23:02:07.104Z,14.87
2022-08-07T23:06:07.470Z,14.74
2022-08-07T23:07:59.082Z,14.48
2022-08-07T23:10:41.971Z,14.26
2022-08-07T23:13:48.360Z,14.16
2022-08-07T23:16:54.407Z,14.08
2022-08-07T23:19:58.045Z,13.98
2022-08-07T23:22:52.285Z,13.86
2022-08-07T23:25:33.103Z,13.86
2022-08-07T23:28:21.073Z,13.77
2022-08-07T23:31:11.480Z,13.74
2022-08-07T23:34:34.699Z,13.76
2022-08-07T23:37:19.160Z,13.74
2022-08-07T23:40:07.526Z,13.70
2022-08-07T23:42:54.891Z,13.70
2022-08-07T23:46:02.851Z,13.64
2022-08-07T23:49:05.586Z,13.54
2022-08-07T23:53:00.428Z,13.43
2022-08-07T23:54:46.179Z,13.30
2022-08-07T23:57:24.725Z,13.26
